sensor_id;sensor_type;location;lat;lon;timestamp;pressure;altitude;pressure_sealevel;temperature;humidity
49377;BME280;35253;34.688;33.040;2022-12-11T00:01:43;101414.97;;;16.44;100.00
49377;BME280;35253;34.688;33.040;2022-12-11T00:04:08;101406.59;;;16.36;100.00
49377;BME280;35253;34.688;33.040;2022-12-11T00:06:34;101407.66;;;16.34;100.00
49377;BME280;35253;34.688;33.040;2022-12-11T00:09:00;101401.22;;;16.36;100.00
49377;BME280;35253;34.688;33.040;2022-12-11T00:11:25;101396.25;;;16.30;100.00
49377;BME280;35253;34.688;33.040;2022-12-11T00:13:51;101386.56;;;16.40;100.00
49377;BME280;35253;34.688;33.040;2022-12-11T00:16:16;101386.44;;;16.42;100.00
49377;BME280;35253;34.688;33.040;2022-12-11T00:18:42;101385.47;;;16.43;100.00
49377;BME280;35253;34.688;33.040;2022-12-11T00:21:10;101380.19;;;16.41;100.00
49377;BME280;35253;34.688;33.040;2022-12-11T00:23:36;101389.13;;;16.42;100.00
49377;BME280;35253;34.688;33.040;2022-12-11T00:26:05;101388.69;;;16.60;100.00
49377;BME280;35253;34.688;33.040;2022-12-11T00:28:31;101382.56;;;16.58;100.00
49377;BME280;35253;34.688;33.040;2022-12-11T00:30:57;101388.25;;;16.66;100.00
49377;BME280;35253;34.688;33.040;2022-12-11T00:33:22;101383.94;;;16.64;100.00
49377;BME280;35253;34.688;33.040;2022-12-11T00:35:50;101380.91;;;16.68;100.00
49377;BME280;35253;34.688;33.040;2022-12-11T00:38:17;101375.63;;;16.54;100.00
49377;BME280;35253;34.688;33.040;2022-12-11T00:40:42;101369.09;;;16.46;100.00
49377;BME280;35253;34.688;33.040;2022-12-11T00:43:08;101374.06;;;16.39;100.00
49377;BME280;35253;34.688;33.040;2022-12-11T00:45:43;101369.94;;;16.46;100.00
49377;BME280;35253;34.688;33.040;2022-12-11T00:48:10;101372.09;;;16.41;100.00
49377;BME280;35253;34.688;33.040;2022-12-11T00:50:36;101373.09;;;16.40;100.00
49377;BME280;35253;34.688;33.040;2022-12-11T00:53:02;101373.84;;;16.42;100.00
49377;BME280;35253;34.688;33.040;2022-12-11T00:55:27;101381.56;;;16.59;100.00
49377;BME280;35253;34.688;33.040;2022-12-11T00:57:53;101379.31;;;16.53;100.00
49377;BME280;35253;34.688;33.040;2022-12-11T01:00:19;101382.22;;;16.50;100.00
49377;BME280;35253;34.688;33.040;2022-12-11T01:02:44;101382.22;;;16.50;100.00
49377;BME280;35253;34.688;33.040;2022-12-11T01:05:10;101378.56;;;16.51;100.00
49377;BME280;35253;34.688;33.040;2022-12-11T01:07:35;101379.84;;;16.46;100.00
49377;BME280;35253;34.688;33.040;2022-12-11T01:10:01;101377.06;;;16.47;100.00
49377;BME280;35253;34.688;33.040;2022-12-11T01:12:45;101369.31;;;16.43;100.00
49377;BME280;35253;34.688;33.040;2022-12-11T01:15:11;101372.34;;;16.38;100.00
49377;BME280;35253;34.688;33.040;2022-12-11T01:17:36;101373.63;;;16.33;100.00
49377;BME280;35253;34.688;33.040;2022-12-11T01:20:02;101368.44;;;16.42;100.00
49377;BME280;35253;34.688;33.040;2022-12-11T01:22:28;101370.63;;;16.37;100.00
49377;BME280;35253;34.688;33.040;2022-12-11T01:24:54;101371.28;;;16.28;100.00
49377;BME280;35253;34.688;33.040;2022-12-11T01:27:19;101363.97;;;16.30;100.00
49377;BME280;35253;34.688;33.040;2022-12-11T01:29:44;101365.47;;;16.34;100.00
49377;BME280;35253;34.688;33.040;2022-12-11T01:32:10;101368.91;;;16.23;100.00
49377;BME280;35253;34.688;33.040;2022-12-11T01:34:35;101366.34;;;16.22;100.00
49377;BME280;35253;34.688;33.040;2022-12-11T01:37:01;101369.78;;;16.24;100.00
49377;BME280;35253;34.688;33.040;2022-12-11T01:39:26;101363.75;;;16.20;100.00
49377;BME280;35253;34.688;33.040;2022-12-11T01:41:59;101360.50;;;16.28;100.00
49377;BME280;35253;34.688;33.040;2022-12-11T01:46:51;101362.25;;;16.29;100.00
49377;BME280;35253;34.688;33.040;2022-12-11T01:49:16;101351.72;;;16.26;100.00
49377;BME280;35253;34.688;33.040;2022-12-11T01:51:44;101356.66;;;16.32;100.00
49377;BME280;35253;34.688;33.040;2022-12-11T01:54:13;101349.69;;;16.17;100.00
49377;BME280;35253;34.688;33.040;2022-12-11T01:56:39;101348.16;;;16.26;100.00
49377;BME280;35253;34.688;33.040;2022-12-11T01:59:06;101350.88;;;16.13;100.00
49377;BME280;35253;34.688;33.040;2022-12-11T02:01:39;101352.78;;;16.11;100.00
49377;BME280;35253;34.688;33.040;2022-12-11T02:04:06;101362.28;;;16.04;100.00
49377;BME280;35253;34.688;33.040;2022-12-11T02:06:37;101351.75;;;16.01;100.00
49377;BME280;35253;34.688;33.040;2022-12-11T02:09:03;101348.63;;;15.94;100.00
49377;BME280;35253;34.688;33.040;2022-12-11T02:11:34;101352.47;;;16.03;100.00
49377;BME280;35253;34.688;33.040;2022-12-11T02:14:04;101354.13;;;15.93;100.00
49377;BME280;35253;34.688;33.040;2022-12-11T02:19:17;101350.75;;;15.89;100.00
49377;BME280;35253;34.688;33.040;2022-12-11T02:21:45;101344.19;;;15.93;100.00
49377;BME280;35253;34.688;33.040;2022-12-11T02:29:34;101352.94;;;15.97;100.00
49377;BME280;35253;34.688;33.040;2022-12-11T02:32:23;101360.25;;;15.95;100.00
49377;BME280;35253;34.688;33.040;2022-12-11T02:37:17;101354.31;;;15.90;100.00
49377;BME280;35253;34.688;33.040;2022-12-11T02:39:43;101350.56;;;16.05;100.00
49377;BME280;35253;34.688;33.040;2022-12-11T02:42:10;101352.16;;;16.07;100.00
49377;BME280;35253;34.688;33.040;2022-12-11T02:44:35;101352.38;;;16.17;100.00
49377;BME280;35253;34.688;33.040;2022-12-11T02:47:02;101357.50;;;16.20;100.00
49377;BME280;35253;34.688;33.040;2022-12-11T02:49:28;101349.16;;;15.99;100.00
49377;BME280;35253;34.688;33.040;2022-12-11T02:51:55;101342.91;;;15.99;100.00
49377;BME280;35253;34.688;33.040;2022-12-11T02:54:22;101344.97;;;15.95;100.00
49377;BME280;35253;34.688;33.040;2022-12-11T02:56:51;101348.28;;;15.99;100.00
49377;BME280;35253;34.688;33.040;2022-12-11T02:59:20;101341.53;;;16.06;100.00
49377;BME280;35253;34.688;33.040;2022-12-11T03:01:47;101334.28;;;16.06;100.00
49377;BME280;35253;34.688;33.040;2022-12-11T03:04:13;101340.53;;;16.07;100.00
49377;BME280;35253;34.688;33.040;2022-12-11T03:06:40;101341.41;;;15.95;100.00
49377;BME280;35253;34.688;33.040;2022-12-11T03:09:08;101330.53;;;16.09;100.00
49377;BME280;35253;34.688;33.040;2022-12-11T03:11:34;101340.13;;;16.00;100.00
49377;BME280;35253;34.688;33.040;2022-12-11T03:13:59;101336.66;;;16.11;100.00
49377;BME280;35253;34.688;33.040;2022-12-11T03:16:33;101346.47;;;15.99;100.00
49377;BME280;35253;34.688;33.040;2022-12-11T03:26:22;101349.91;;;15.76;100.00
49377;BME280;35253;34.688;33.040;2022-12-11T03:28:58;101354.31;;;15.90;100.00
49377;BME280;35253;34.688;33.040;2022-12-11T03:33:50;101357.00;;;15.90;100.00
49377;BME280;35253;34.688;33.040;2022-12-11T03:36:19;101357.78;;;15.92;100.00
49377;BME280;35253;34.688;33.040;2022-12-11T03:38:47;101353.78;;;15.85;100.00
49377;BME280;35253;34.688;33.040;2022-12-11T03:41:15;101360.78;;;15.87;100.00
49377;BME280;35253;34.688;33.040;2022-12-11T03:43:41;101352.81;;;15.86;100.00
49377;BME280;35253;34.688;33.040;2022-12-11T03:46:08;101358.50;;;15.81;100.00
49377;BME280;35253;34.688;33.040;2022-12-11T03:48:35;101360.16;;;15.84;100.00
49377;BME280;35253;34.688;33.040;2022-12-11T03:51:03;101364.66;;;15.70;100.00
49377;BME280;35253;34.688;33.040;2022-12-11T03:53:29;101362.94;;;15.69;100.00
49377;BME280;35253;34.688;33.040;2022-12-11T03:55:55;101359.38;;;15.69;100.00
49377;BME280;35253;34.688;33.040;2022-12-11T03:58:22;101373.47;;;15.72;100.00
49377;BME280;35253;34.688;33.040;2022-12-11T04:00:47;101366.81;;;15.78;100.00
49377;BME280;35253;34.688;33.040;2022-12-11T04:03:13;101368.41;;;15.68;100.00
49377;BME280;35253;34.688;33.040;2022-12-11T04:05:40;101362.28;;;15.78;100.00
49377;BME280;35253;34.688;33.040;2022-12-11T04:08:05;101368.00;;;15.87;100.00
49377;BME280;35253;34.688;33.040;2022-12-11T04:10:31;101366.81;;;15.78;100.00
49377;BME280;35253;34.688;33.040;2022-12-11T04:12:56;101370.78;;;15.72;100.00
49377;BME280;35253;34.688;33.040;2022-12-11T04:15:22;101376.03;;;15.61;100.00
49377;BME280;35253;34.688;33.040;2022-12-11T04:17:47;101371.97;;;15.68;100.00
49377;BME280;35253;34.688;33.040;2022-12-11T04:20:31;101380.88;;;15.56;100.00
49377;BME280;35253;34.688;33.040;2022-12-11T04:23:16;101378.91;;;15.58;100.00
49377;BME280;35253;34.688;33.040;2022-12-11T04:26:07;101371.97;;;15.68;100.00
49377;BME280;35253;34.688;33.040;2022-12-11T04:28:33;101362.16;;;15.67;100.00
49377;BME280;35253;34.688;33.040;2022-12-11T04:30:58;101372.03;;;15.54;100.00
49377;BME280;35253;34.688;33.040;2022-12-11T04:33:24;101378.50;;;15.64;100.00
49377;BME280;35253;34.688;33.040;2022-12-11T04:35:49;101372.19;;;15.65;100.00
49377;BME280;35253;34.688;33.040;2022-12-11T04:38:14;101369.72;;;15.75;100.00
49377;BME280;35253;34.688;33.040;2022-12-11T04:40:40;101374.78;;;15.80;100.00
49377;BME280;35253;34.688;33.040;2022-12-11T04:43:05;101371.53;;;15.87;100.00
49377;BME280;35253;34.688;33.040;2022-12-11T04:45:31;101369.19;;;15.83;100.00
49377;BME280;35253;34.688;33.040;2022-12-11T04:47:56;101367.44;;;15.82;100.00
49377;BME280;35253;34.688;33.040;2022-12-11T04:50:22;101362.84;;;15.84;100.00
49377;BME280;35253;34.688;33.040;2022-12-11T04:52:47;101368.09;;;15.85;100.00
49377;BME280;35253;34.688;33.040;2022-12-11T04:55:12;101366.16;;;15.74;100.00
49377;BME280;35253;34.688;33.040;2022-12-11T04:57:38;101370.44;;;15.77;100.00
49377;BME280;35253;34.688;33.040;2022-12-11T05:00:06;101385.53;;;15.80;100.00
49377;BME280;35253;34.688;33.040;2022-12-11T05:02:33;101384.97;;;15.74;100.00
49377;BME280;35253;34.688;33.040;2022-12-11T05:04:59;101378.84;;;15.72;100.00
49377;BME280;35253;34.688;33.040;2022-12-11T05:07:24;101390.56;;;15.71;100.00
49377;BME280;35253;34.688;33.040;2022-12-11T05:09:50;101389.81;;;15.82;100.00
49377;BME280;35253;34.688;33.040;2022-12-11T05:12:16;101386.91;;;15.85;100.00
49377;BME280;35253;34.688;33.040;2022-12-11T05:14:41;101377.97;;;15.85;100.00
49377;BME280;35253;34.688;33.040;2022-12-11T05:17:07;101385.09;;;15.86;100.00
49377;BME280;35253;34.688;33.040;2022-12-11T05:19:32;101381.03;;;15.93;100.00
49377;BME280;35253;34.688;33.040;2022-12-11T05:22:03;101382.06;;;15.90;100.00
49377;BME280;35253;34.688;33.040;2022-12-11T05:24:28;101387.56;;;15.89;100.00
49377;BME280;35253;34.688;33.040;2022-12-11T05:26:53;101387.56;;;16.01;100.00
49377;BME280;35253;34.688;33.040;2022-12-11T05:29:19;101383.34;;;15.97;100.00
49377;BME280;35253;34.688;33.040;2022-12-11T05:31:44;101380.69;;;16.10;100.00
49377;BME280;35253;34.688;33.040;2022-12-11T05:34:10;101381.09;;;16.16;100.00
49377;BME280;35253;34.688;33.040;2022-12-11T05:36:35;101380.78;;;16.21;100.00
49377;BME280;35253;34.688;33.040;2022-12-11T05:39:02;101381.00;;;16.18;100.00
49377;BME280;35253;34.688;33.040;2022-12-11T05:41:29;101368.06;;;16.23;100.00
49377;BME280;35253;34.688;33.040;2022-12-11T05:43:55;101371.06;;;16.31;100.00
49377;BME280;35253;34.688;33.040;2022-12-11T05:46:21;101384.31;;;16.34;100.00
49377;BME280;35253;34.688;33.040;2022-12-11T05:48:48;101382.88;;;16.41;100.00
49377;BME280;35253;34.688;33.040;2022-12-11T05:51:14;101391.47;;;16.46;100.00
49377;BME280;35253;34.688;33.040;2022-12-11T05:53:40;101399.47;;;16.48;100.00
49377;BME280;35253;34.688;33.040;2022-12-11T05:56:09;101403.13;;;16.59;100.00
49377;BME280;35253;34.688;33.040;2022-12-11T05:58:35;101400.41;;;16.59;100.00
49377;BME280;35253;34.688;33.040;2022-12-11T06:01:01;101402.69;;;16.53;100.00
49377;BME280;35253;34.688;33.040;2022-12-11T06:03:26;101406.78;;;16.71;100.00
49377;BME280;35253;34.688;33.040;2022-12-11T06:05:52;101407.94;;;16.80;100.00
49377;BME280;35253;34.688;33.040;2022-12-11T06:08:17;101412.97;;;16.84;100.00
49377;BME280;35253;34.688;33.040;2022-12-11T06:10:43;101405.53;;;16.88;100.00
49377;BME280;35253;34.688;33.040;2022-12-11T06:13:09;101410.97;;;16.99;100.00
49377;BME280;35253;34.688;33.040;2022-12-11T06:15:34;101412.94;;;16.97;100.00
49377;BME280;35253;34.688;33.040;2022-12-11T06:18:00;101414.59;;;17.10;100.00
49377;BME280;35253;34.688;33.040;2022-12-11T06:20:25;101413.06;;;17.19;100.00
49377;BME280;35253;34.688;33.040;2022-12-11T06:22:51;101409.50;;;17.19;100.00
49377;BME280;35253;34.688;33.040;2022-12-11T06:25:16;101420.19;;;17.31;100.00
49377;BME280;35253;34.688;33.040;2022-12-11T06:27:42;101409.94;;;17.36;100.00
49377;BME280;35253;34.688;33.040;2022-12-11T06:30:07;101418.91;;;17.48;100.00
49377;BME280;35253;34.688;33.040;2022-12-11T06:32:33;101418.22;;;17.57;100.00
49377;BME280;35253;34.688;33.040;2022-12-11T06:34:58;101430.63;;;17.60;100.00
49377;BME280;35253;34.688;33.040;2022-12-11T06:37:23;101418.66;;;17.64;100.00
49377;BME280;35253;34.688;33.040;2022-12-11T06:39:49;101420.63;;;17.73;100.00
49377;BME280;35253;34.688;33.040;2022-12-11T06:42:14;101420.25;;;17.77;100.00
49377;BME280;35253;34.688;33.040;2022-12-11T06:44:41;101426.94;;;17.84;100.00
49377;BME280;35253;34.688;33.040;2022-12-11T06:47:06;101424.47;;;17.92;100.00
49377;BME280;35253;34.688;33.040;2022-12-11T06:49:32;101422.03;;;18.00;100.00
49377;BME280;35253;34.688;33.040;2022-12-11T06:51:57;101412.09;;;18.01;100.00
49377;BME280;35253;34.688;33.040;2022-12-11T06:54:26;101411.84;;;18.04;100.00
49377;BME280;35253;34.688;33.040;2022-12-11T06:56:52;101413.47;;;18.18;100.00
49377;BME280;35253;34.688;33.040;2022-12-11T06:59:17;101413.88;;;18.24;100.00
49377;BME280;35253;34.688;33.040;2022-12-11T07:01:43;101418.75;;;18.30;100.00
49377;BME280;35253;34.688;33.040;2022-12-11T07:04:09;101421.59;;;18.29;100.00
49377;BME280;35253;34.688;33.040;2022-12-11T07:06:34;101419.13;;;18.37;100.00
49377;BME280;35253;34.688;33.040;2022-12-11T07:09:02;101422.25;;;18.55;100.00
49377;BME280;35253;34.688;33.040;2022-12-11T07:11:27;101425.91;;;18.54;100.00
49377;BME280;35253;34.688;33.040;2022-12-11T07:13:53;101423.22;;;18.54;100.00
49377;BME280;35253;34.688;33.040;2022-12-11T07:16:18;101419.00;;;18.50;100.00
49377;BME280;35253;34.688;33.040;2022-12-11T07:18:48;101415.00;;;18.55;100.00
49377;BME280;35253;34.688;33.040;2022-12-11T07:21:13;101407.25;;;18.62;100.00
49377;BME280;35253;34.688;33.040;2022-12-11T07:23:39;101409.22;;;18.60;100.00
49377;BME280;35253;34.688;33.040;2022-12-11T07:26:11;101413.50;;;18.62;100.00
49377;BME280;35253;34.688;33.040;2022-12-11T07:28:37;101413.41;;;18.64;100.00
49377;BME280;35253;34.688;33.040;2022-12-11T07:31:12;101417.91;;;18.74;100.00
49377;BME280;35253;34.688;33.040;2022-12-11T07:33:39;101418.66;;;18.76;100.00
49377;BME280;35253;34.688;33.040;2022-12-11T07:36:05;101408.19;;;18.83;100.00
49377;BME280;35253;34.688;33.040;2022-12-11T07:38:31;101411.75;;;18.83;100.00
49377;BME280;35253;34.688;33.040;2022-12-11T07:41:03;101405.25;;;18.86;100.00
49377;BME280;35253;34.688;33.040;2022-12-11T07:43:29;101408.72;;;18.77;100.00
49377;BME280;35253;34.688;33.040;2022-12-11T07:45:59;101396.13;;;18.87;100.00
49377;BME280;35253;34.688;33.040;2022-12-11T07:48:24;101400.34;;;18.91;100.00
49377;BME280;35253;34.688;33.040;2022-12-11T07:50:49;101407.91;;;18.97;100.00
49377;BME280;35253;34.688;33.040;2022-12-11T07:53:15;101409.38;;;19.01;100.00
49377;BME280;35253;34.688;33.040;2022-12-11T07:55:40;101400.03;;;19.05;100.00
49377;BME280;35253;34.688;33.040;2022-12-11T07:58:06;101392.41;;;19.10;100.00
49377;BME280;35253;34.688;33.040;2022-12-11T08:00:31;101399.03;;;19.17;100.00
49377;BME280;35253;34.688;33.040;2022-12-11T08:02:56;101392.88;;;19.15;100.00
49377;BME280;35253;34.688;33.040;2022-12-11T08:05:23;101390.66;;;19.20;100.00
49377;BME280;35253;34.688;33.040;2022-12-11T08:07:48;101386.19;;;19.30;100.00
49377;BME280;35253;34.688;33.040;2022-12-11T08:10:14;101378.53;;;19.35;100.00
49377;BME280;35253;34.688;33.040;2022-12-11T08:12:39;101382.56;;;19.41;100.00
49377;BME280;35253;34.688;33.040;2022-12-11T08:15:05;101377.78;;;19.45;100.00
49377;BME280;35253;34.688;33.040;2022-12-11T08:17:30;101379.50;;;19.46;100.00
49377;BME280;35253;34.688;33.040;2022-12-11T08:19:56;101370.03;;;19.51;100.00
49377;BME280;35253;34.688;33.040;2022-12-11T08:22:21;101367.22;;;19.62;100.00
49377;BME280;35253;34.688;33.040;2022-12-11T08:24:47;101357.75;;;19.68;100.00
49377;BME280;35253;34.688;33.040;2022-12-11T08:27:12;101351.94;;;19.72;100.00
49377;BME280;35253;34.688;33.040;2022-12-11T08:29:38;101353.25;;;19.78;100.00
49377;BME280;35253;34.688;33.040;2022-12-11T08:32:03;101343.13;;;19.80;100.00
49377;BME280;35253;34.688;33.040;2022-12-11T08:34:29;101342.75;;;19.85;100.00
49377;BME280;35253;34.688;33.040;2022-12-11T08:36:54;101343.78;;;19.93;100.00
49377;BME280;35253;34.688;33.040;2022-12-11T08:39:19;101346.41;;;20.04;100.00
49377;BME280;35253;34.688;33.040;2022-12-11T08:41:45;101345.16;;;20.08;100.00
49377;BME280;35253;34.688;33.040;2022-12-11T08:44:11;101333.06;;;20.12;100.00
49377;BME280;35253;34.688;33.040;2022-12-11T08:46:36;101330.22;;;20.14;100.00
49377;BME280;35253;34.688;33.040;2022-12-11T08:49:02;101328.25;;;20.25;100.00
49377;BME280;35253;34.688;33.040;2022-12-11T08:51:28;101324.81;;;20.23;100.00
49377;BME280;35253;34.688;33.040;2022-12-11T08:53:55;101319.16;;;20.27;100.00
49377;BME280;35253;34.688;33.040;2022-12-11T08:56:20;101321.41;;;20.21;100.00
49377;BME280;35253;34.688;33.040;2022-12-11T08:58:48;101310.16;;;20.26;100.00
49377;BME280;35253;34.688;33.040;2022-12-11T09:01:15;101316.19;;;20.30;100.00
49377;BME280;35253;34.688;33.040;2022-12-11T09:03:41;101309.66;;;20.42;100.00
49377;BME280;35253;34.688;33.040;2022-12-11T09:06:07;101305.22;;;20.41;100.00
49377;BME280;35253;34.688;33.040;2022-12-11T09:08:33;101298.53;;;20.45;100.00
49377;BME280;35253;34.688;33.040;2022-12-11T09:11:03;101295.00;;;20.54;100.00
49377;BME280;35253;34.688;33.040;2022-12-11T09:13:29;101287.91;;;20.53;100.00
49377;BME280;35253;34.688;33.040;2022-12-11T09:15:54;101284.59;;;20.59;100.00
49377;BME280;35253;34.688;33.040;2022-12-11T09:18:19;101287.06;;;20.62;100.00
49377;BME280;35253;34.688;33.040;2022-12-11T09:20:45;101286.22;;;20.71;100.00
49377;BME280;35253;34.688;33.040;2022-12-11T09:23:10;101279.06;;;20.70;100.00
49377;BME280;35253;34.688;33.040;2022-12-11T09:25:38;101272.81;;;20.79;100.00
49377;BME280;35253;34.688;33.040;2022-12-11T09:28:04;101264.25;;;20.84;100.00
49377;BME280;35253;34.688;33.040;2022-12-11T09:30:29;101255.25;;;20.83;100.00
49377;BME280;35253;34.688;33.040;2022-12-11T09:32:55;101245.41;;;20.82;100.00
49377;BME280;35253;34.688;33.040;2022-12-11T09:35:20;101248.56;;;20.87;100.00
49377;BME280;35253;34.688;33.040;2022-12-11T09:37:46;101244.25;;;20.94;100.00
49377;BME280;35253;34.688;33.040;2022-12-11T09:40:11;101240.00;;;20.92;100.00
49377;BME280;35253;34.688;33.040;2022-12-11T09:42:52;101239.69;;;20.95;100.00
49377;BME280;35253;34.688;33.040;2022-12-11T09:45:18;101238.84;;;20.94;100.00
49377;BME280;35253;34.688;33.040;2022-12-11T09:47:45;101245.25;;;20.93;100.00
49377;BME280;35253;34.688;33.040;2022-12-11T09:55:15;101227.13;;;21.03;100.00
49377;BME280;35253;34.688;33.040;2022-12-11T10:10:46;101200.31;;;20.91;100.00
49377;BME280;35253;34.688;33.040;2022-12-11T10:18:16;101187.06;;;20.97;100.00
49377;BME280;35253;34.688;33.040;2022-12-11T10:20:42;101186.34;;;20.95;100.00
49377;BME280;35253;34.688;33.040;2022-12-11T10:23:16;101193.59;;;21.04;100.00
49377;BME280;35253;34.688;33.040;2022-12-11T10:25:53;101197.72;;;21.08;100.00
49377;BME280;35253;34.688;33.040;2022-12-11T10:28:22;101186.88;;;21.08;100.00
49377;BME280;35253;34.688;33.040;2022-12-11T10:31:07;101176.03;;;21.28;100.00
49377;BME280;35253;34.688;33.040;2022-12-11T10:36:01;101189.69;;;21.36;100.00
49377;BME280;35253;34.688;33.040;2022-12-11T10:38:30;101182.81;;;21.41;100.00
49377;BME280;35253;34.688;33.040;2022-12-11T10:41:10;101191.94;;;21.50;100.00
49377;BME280;35253;34.688;33.040;2022-12-11T10:43:43;101188.00;;;21.35;100.00
49377;BME280;35253;34.688;33.040;2022-12-11T10:46:14;101187.66;;;21.47;100.00
49377;BME280;35253;34.688;33.040;2022-12-11T10:48:50;101186.53;;;21.50;100.00
49377;BME280;35253;34.688;33.040;2022-12-11T10:53:54;101174.72;;;21.69;100.00
49377;BME280;35253;34.688;33.040;2022-12-11T10:56:25;101162.41;;;21.74;100.00
49377;BME280;35253;34.688;33.040;2022-12-11T10:58:51;101160.91;;;21.89;100.00
49377;BME280;35253;34.688;33.040;2022-12-11T11:01:21;101153.16;;;21.67;100.00
49377;BME280;35253;34.688;33.040;2022-12-11T11:03:52;101154.72;;;21.70;100.00
49377;BME280;35253;34.688;33.040;2022-12-11T11:06:20;101145.53;;;21.80;100.00
49377;BME280;35253;34.688;33.040;2022-12-11T11:08:46;101150.16;;;21.97;100.00
49377;BME280;35253;34.688;33.040;2022-12-11T11:11:34;101149.34;;;22.15;100.00
49377;BME280;35253;34.688;33.040;2022-12-11T11:14:14;101151.19;;;21.87;100.00
49377;BME280;35253;34.688;33.040;2022-12-11T11:16:40;101140.50;;;21.58;100.00
49377;BME280;35253;34.688;33.040;2022-12-11T11:19:13;101134.44;;;21.64;100.00
49377;BME280;35253;34.688;33.040;2022-12-11T11:21:45;101138.38;;;21.79;100.00
49377;BME280;35253;34.688;33.040;2022-12-11T11:24:28;101135.56;;;21.71;100.00
49377;BME280;35253;34.688;33.040;2022-12-11T11:26:54;101132.63;;;21.82;100.00
49377;BME280;35253;34.688;33.040;2022-12-11T11:29:22;101125.50;;;21.81;100.00
49377;BME280;35253;34.688;33.040;2022-12-11T11:31:49;101125.88;;;21.86;100.00
49377;BME280;35253;34.688;33.040;2022-12-11T11:34:17;101126.66;;;21.79;100.00
49377;BME280;35253;34.688;33.040;2022-12-11T11:36:43;101117.94;;;21.57;100.00
49377;BME280;35253;34.688;33.040;2022-12-11T11:44:14;101110.06;;;21.82;100.00
49377;BME280;35253;34.688;33.040;2022-12-11T11:46:46;101107.34;;;21.82;100.00
49377;BME280;35253;34.688;33.040;2022-12-11T11:49:34;101106.13;;;21.76;100.00
49377;BME280;35253;34.688;33.040;2022-12-11T11:54:32;101101.84;;;21.91;100.00
49377;BME280;35253;34.688;33.040;2022-12-11T11:56:58;101100.44;;;22.32;100.00
49377;BME280;35253;34.688;33.040;2022-12-11T12:01:52;101103.81;;;22.52;100.00
49377;BME280;35253;34.688;33.040;2022-12-11T12:04:18;101094.22;;;22.40;100.00
49377;BME280;35253;34.688;33.040;2022-12-11T12:09:18;101094.81;;;21.98;100.00
49377;BME280;35253;34.688;33.040;2022-12-11T12:11:55;101094.06;;;22.06;100.00
49377;BME280;35253;34.688;33.040;2022-12-11T12:27:45;101092.47;;;21.41;100.00
49377;BME280;35253;34.688;33.040;2022-12-11T12:30:15;101093.16;;;21.43;100.00
49377;BME280;35253;34.688;33.040;2022-12-11T12:32:48;101085.41;;;21.21;100.00
49377;BME280;35253;34.688;33.040;2022-12-11T12:38:13;101090.19;;;20.90;100.00
49377;BME280;35253;34.688;33.040;2022-12-11T12:40:47;101097.34;;;20.81;100.00
49377;BME280;35253;34.688;33.040;2022-12-11T12:43:29;101085.50;;;20.82;100.00
49377;BME280;35253;34.688;33.040;2022-12-11T12:48:23;101083.09;;;20.69;100.00
49377;BME280;35253;34.688;33.040;2022-12-11T12:50:49;101084.66;;;20.62;100.00
49377;BME280;35253;34.688;33.040;2022-12-11T12:53:17;101072.28;;;20.60;100.00
49377;BME280;35253;34.688;33.040;2022-12-11T12:55:42;101071.72;;;20.56;100.00
49377;BME280;35253;34.688;33.040;2022-12-11T13:00:53;101064.47;;;20.57;100.00
49377;BME280;35253;34.688;33.040;2022-12-11T13:03:23;101060.34;;;20.53;100.00
49377;BME280;35253;34.688;33.040;2022-12-11T13:08:24;101080.59;;;20.49;100.00
49377;BME280;35253;34.688;33.040;2022-12-11T13:10:55;101071.44;;;20.50;100.00
49377;BME280;35253;34.688;33.040;2022-12-11T13:13:25;101074.75;;;20.44;100.00
49377;BME280;35253;34.688;33.040;2022-12-11T13:15:54;101073.16;;;20.41;100.00
49377;BME280;35253;34.688;33.040;2022-12-11T13:18:36;101067.47;;;20.44;100.00
49377;BME280;35253;34.688;33.040;2022-12-11T13:21:22;101068.59;;;20.42;100.00
49377;BME280;35253;34.688;33.040;2022-12-11T13:23:48;101072.34;;;20.31;100.00
49377;BME280;35253;34.688;33.040;2022-12-11T13:26:15;101072.88;;;20.25;100.00
49377;BME280;35253;34.688;33.040;2022-12-11T13:28:51;101074.28;;;20.19;100.00
49377;BME280;35253;34.688;33.040;2022-12-11T13:33:42;101076.84;;;20.11;100.00
49377;BME280;35253;34.688;33.040;2022-12-11T13:38:37;101083.09;;;20.02;100.00
49377;BME280;35253;34.688;33.040;2022-12-11T13:41:08;101078.84;;;20.00;100.00
49377;BME280;35253;34.688;33.040;2022-12-11T13:43:35;101084.25;;;19.90;100.00
49377;BME280;35253;34.688;33.040;2022-12-11T13:46:02;101085.53;;;19.96;100.00
49377;BME280;35253;34.688;33.040;2022-12-11T13:48:47;101082.94;;;19.85;100.00
49377;BME280;35253;34.688;33.040;2022-12-11T13:51:19;101077.13;;;19.89;100.00
49377;BME280;35253;34.688;33.040;2022-12-11T13:53:45;101073.53;;;19.79;100.00
49377;BME280;35253;34.688;33.040;2022-12-11T13:56:18;101079.38;;;19.84;100.00
49377;BME280;35253;34.688;33.040;2022-12-11T13:58:43;101082.81;;;19.86;100.00
49377;BME280;35253;34.688;33.040;2022-12-11T14:03:38;101094.16;;;19.70;100.00
49377;BME280;35253;34.688;33.040;2022-12-11T14:06:04;101099.16;;;19.75;100.00
49377;BME280;35253;34.688;33.040;2022-12-11T14:08:34;101102.16;;;19.72;100.00